NLSK1: Solomon River, Niles, KS

                                SHEF ID:       NLSK1     SOLOMON R AT NILES, KS
STATION TYPE:

PRECIP STAGE RIV-FLOW BAT-LOAD
in ft cfs volt
Ccp-Rev Ccp-Rev Ccp-Rev Ccp-Rev
(America/Chicago)
06/23 00:00 0.00 12.49 1657 11.94
06/23 01:00 0.00 12.47 1652 11.89
06/23 02:00 0.00 12.45 1646 11.93
06/23 03:00 0.00 12.43 1641 11.85
06/23 04:00 0.00 12.40 1632 11.87
06/23 05:00 0.00 12.37 1624 11.81
06/23 06:00 0.00 12.34 1615 11.84
06/23 07:00 0.00 12.31 1607 11.85
06/23 08:00 0.00 12.28 1599 11.88
06/23 09:00 0.00 12.25 1590 11.70
06/23 10:00 0.00 12.22 1582 11.94
06/23 11:00 0.00 12.19 1574 12.28
06/23 12:00 0.00 12.16 1566 12.26
06/23 13:00 0.00 12.13 1557 12.37
06/23 14:00 0.00 12.09 1547 12.63
06/23 15:00 0.00 12.06 1538 12.59
06/23 16:00 0.00 12.01 1525 12.21
06/23 17:00 0.00 11.97 1514 12.40
06/23 18:00 0.00 11.93 1503 12.42
06/23 19:00 0.00 11.88 1490 12.04
06/23 20:00 0.00 11.83 1476 12.01
06/23 21:00 0.00 11.77 1460 11.94
06/23 22:00 0.00 11.71 1444 11.83
06/23 23:00 0.00 11.64 1426 11.86
Data processed at Wed 24Jun2026 04:41 GMT

NOTICE: If you are parsing this page

Please convert to using our Data API. Starting early 2026 we will be migrating to: https://water.usace.army.mil with modern pages rendered in JavaScript. When this migration completes you will no longer be able to scrape this page! CWMSDataAPI (CDA)

Timeseries IDs (TSIDs)

TSIDs used from left to right in the data table
NLSK.Precip-Inc.Total.1Hour.1Hour.Ccp-Rev
NLSK.Stage.Inst.1Hour.0.Ccp-Rev
NLSK.Flow.Inst.1Hour.0.Ccp-Rev
NLSK.Volt-Battery Load.Inst.1Hour.0.Ccp-Rev

                            

All information presented herein is the property of the government of the United States of America and may be revised or deleted at any time without prior notice. Dissemination of this information without the expressed written consent of the Public Affairs Office, Tulsa District U.S. Army Corps of Engineers is strictly prohibited. These data are gathered electronically and, as presented, have NOT undergone any form of quality control. These data are NOT guaranteed to be valid or correct.